sensor_id;sensor_type;location;lat;lon;timestamp;P1;durP1;ratioP1;P2;durP2;ratioP2
7154;SDS011;3619;53.784;10.440;2024-01-27T00:01:49;14.07;;;13.57;;
7154;SDS011;3619;53.784;10.440;2024-01-27T00:04:16;14.20;;;13.70;;
7154;SDS011;3619;53.784;10.440;2024-01-27T00:06:44;12.80;;;12.30;;
7154;SDS011;3619;53.784;10.440;2024-01-27T00:09:11;14.03;;;13.53;;
7154;SDS011;3619;53.784;10.440;2024-01-27T00:11:38;16.03;;;15.43;;
7154;SDS011;3619;53.784;10.440;2024-01-27T00:14:05;16.23;;;15.63;;
7154;SDS011;3619;53.784;10.440;2024-01-27T00:16:32;14.50;;;14.00;;
7154;SDS011;3619;53.784;10.440;2024-01-27T00:18:59;13.93;;;13.43;;
7154;SDS011;3619;53.784;10.440;2024-01-27T00:21:26;18.33;;;17.63;;
7154;SDS011;3619;53.784;10.440;2024-01-27T00:23:54;16.67;;;16.07;;
7154;SDS011;3619;53.784;10.440;2024-01-27T00:26:25;15.70;;;15.10;;
7154;SDS011;3619;53.784;10.440;2024-01-27T00:28:52;16.83;;;16.23;;
7154;SDS011;3619;53.784;10.440;2024-01-27T00:31:19;17.83;;;17.13;;
7154;SDS011;3619;53.784;10.440;2024-01-27T00:33:46;16.10;;;15.50;;
7154;SDS011;3619;53.784;10.440;2024-01-27T00:36:13;15.63;;;15.03;;
7154;SDS011;3619;53.784;10.440;2024-01-27T00:38:41;17.47;;;16.80;;
7154;SDS011;3619;53.784;10.440;2024-01-27T00:41:09;17.50;;;16.80;;
7154;SDS011;3619;53.784;10.440;2024-01-27T00:43:43;18.97;;;18.27;;
7154;SDS011;3619;53.784;10.440;2024-01-27T00:46:10;15.20;;;14.60;;
7154;SDS011;3619;53.784;10.440;2024-01-27T00:48:36;19.40;;;18.70;;
7154;SDS011;3619;53.784;10.440;2024-01-27T00:51:03;18.40;;;17.70;;
7154;SDS011;3619;53.784;10.440;2024-01-27T00:53:30;18.93;;;18.23;;
7154;SDS011;3619;53.784;10.440;2024-01-27T00:55:57;19.00;;;18.30;;
7154;SDS011;3619;53.784;10.440;2024-01-27T00:58:26;19.00;;;18.30;;
7154;SDS011;3619;53.784;10.440;2024-01-27T01:00:52;16.90;;;16.30;;
7154;SDS011;3619;53.784;10.440;2024-01-27T01:03:19;20.37;;;19.57;;
7154;SDS011;3619;53.784;10.440;2024-01-27T01:05:47;20.33;;;19.53;;
7154;SDS011;3619;53.784;10.440;2024-01-27T01:08:14;19.97;;;19.23;;
7154;SDS011;3619;53.784;10.440;2024-01-27T01:10:41;19.17;;;18.47;;
7154;SDS011;3619;53.784;10.440;2024-01-27T01:13:08;19.97;;;19.23;;
7154;SDS011;3619;53.784;10.440;2024-01-27T01:15:36;20.90;;;20.10;;
7154;SDS011;3619;53.784;10.440;2024-01-27T01:18:04;19.43;;;18.73;;
7154;SDS011;3619;53.784;10.440;2024-01-27T01:20:31;21.97;;;21.17;;
7154;SDS011;3619;53.784;10.440;2024-01-27T01:22:58;18.37;;;17.67;;
7154;SDS011;3619;53.784;10.440;2024-01-27T01:25:25;20.80;;;20.00;;
7154;SDS011;3619;53.784;10.440;2024-01-27T01:27:52;18.80;;;18.10;;
7154;SDS011;3619;53.784;10.440;2024-01-27T01:30:18;19.50;;;18.80;;
7154;SDS011;3619;53.784;10.440;2024-01-27T01:32:47;18.27;;;17.57;;
7154;SDS011;3619;53.784;10.440;2024-01-27T01:35:15;21.70;;;20.90;;
7154;SDS011;3619;53.784;10.440;2024-01-27T01:37:42;21.13;;;20.33;;
7154;SDS011;3619;53.784;10.440;2024-01-27T01:40:09;19.23;;;18.53;;
7154;SDS011;3619;53.784;10.440;2024-01-27T01:42:37;20.60;;;19.80;;
7154;SDS011;3619;53.784;10.440;2024-01-27T01:45:04;21.87;;;21.07;;
7154;SDS011;3619;53.784;10.440;2024-01-27T01:47:32;23.43;;;21.47;;
7154;SDS011;3619;53.784;10.440;2024-01-27T01:50:01;21.40;;;20.60;;
7154;SDS011;3619;53.784;10.440;2024-01-27T01:52:28;19.93;;;19.20;;
7154;SDS011;3619;53.784;10.440;2024-01-27T01:54:56;19.20;;;18.50;;
7154;SDS011;3619;53.784;10.440;2024-01-27T01:57:24;21.83;;;21.03;;
7154;SDS011;3619;53.784;10.440;2024-01-27T01:59:51;20.77;;;19.97;;
7154;SDS011;3619;53.784;10.440;2024-01-27T02:02:18;20.00;;;19.27;;
7154;SDS011;3619;53.784;10.440;2024-01-27T02:04:46;19.83;;;19.13;;
7154;SDS011;3619;53.784;10.440;2024-01-27T02:07:14;22.40;;;21.60;;
7154;SDS011;3619;53.784;10.440;2024-01-27T02:09:41;20.67;;;19.77;;
7154;SDS011;3619;53.784;10.440;2024-01-27T02:12:09;21.57;;;20.77;;
7154;SDS011;3619;53.784;10.440;2024-01-27T02:14:36;21.73;;;20.93;;
7154;SDS011;3619;53.784;10.440;2024-01-27T02:17:03;23.43;;;22.53;;
7154;SDS011;3619;53.784;10.440;2024-01-27T02:19:31;22.80;;;21.90;;
7154;SDS011;3619;53.784;10.440;2024-01-27T02:21:57;23.87;;;22.97;;
7154;SDS011;3619;53.784;10.440;2024-01-27T02:24:26;20.40;;;19.60;;
7154;SDS011;3619;53.784;10.440;2024-01-27T02:26:53;23.83;;;22.93;;
7154;SDS011;3619;53.784;10.440;2024-01-27T02:29:20;23.30;;;22.40;;
7154;SDS011;3619;53.784;10.440;2024-01-27T02:31:47;23.53;;;22.63;;
7154;SDS011;3619;53.784;10.440;2024-01-27T02:34:14;21.80;;;21.00;;
7154;SDS011;3619;53.784;10.440;2024-01-27T02:36:41;21.93;;;21.13;;
7154;SDS011;3619;53.784;10.440;2024-01-27T02:39:09;24.73;;;23.83;;
7154;SDS011;3619;53.784;10.440;2024-01-27T02:41:37;23.23;;;22.33;;
7154;SDS011;3619;53.784;10.440;2024-01-27T02:44:04;22.40;;;21.57;;
7154;SDS011;3619;53.784;10.440;2024-01-27T02:46:31;24.93;;;24.03;;
7154;SDS011;3619;53.784;10.440;2024-01-27T02:48:59;28.07;;;26.97;;
7154;SDS011;3619;53.784;10.440;2024-01-27T02:51:26;25.57;;;24.57;;
7154;SDS011;3619;53.784;10.440;2024-01-27T02:53:53;24.87;;;23.93;;
7154;SDS011;3619;53.784;10.440;2024-01-27T02:56:19;28.67;;;27.57;;
7154;SDS011;3619;53.784;10.440;2024-01-27T02:58:47;28.63;;;27.53;;
7154;SDS011;3619;53.784;10.440;2024-01-27T03:01:14;24.90;;;24.00;;
7154;SDS011;3619;53.784;10.440;2024-01-27T03:03:41;26.30;;;25.30;;
7154;SDS011;3619;53.784;10.440;2024-01-27T03:06:08;25.97;;;24.97;;
7154;SDS011;3619;53.784;10.440;2024-01-27T03:08:36;26.30;;;25.30;;
7154;SDS011;3619;53.784;10.440;2024-01-27T03:11:03;30.63;;;28.93;;
7154;SDS011;3619;53.784;10.440;2024-01-27T03:13:30;23.67;;;22.77;;
7154;SDS011;3619;53.784;10.440;2024-01-27T03:15:58;25.70;;;24.70;;
7154;SDS011;3619;53.784;10.440;2024-01-27T03:18:25;27.07;;;26.07;;
7154;SDS011;3619;53.784;10.440;2024-01-27T03:20:52;29.67;;;28.57;;
7154;SDS011;3619;53.784;10.440;2024-01-27T03:23:18;26.90;;;25.90;;
7154;SDS011;3619;53.784;10.440;2024-01-27T03:25:45;29.63;;;28.20;;
7154;SDS011;3619;53.784;10.440;2024-01-27T03:28:12;29.63;;;28.53;;
7154;SDS011;3619;53.784;10.440;2024-01-27T03:30:39;26.47;;;25.47;;
7154;SDS011;3619;53.784;10.440;2024-01-27T03:33:07;23.00;;;22.10;;
7154;SDS011;3619;53.784;10.440;2024-01-27T03:35:35;24.57;;;23.67;;
7154;SDS011;3619;53.784;10.440;2024-01-27T03:38:03;26.83;;;25.83;;
7154;SDS011;3619;53.784;10.440;2024-01-27T03:40:31;27.53;;;26.50;;
7154;SDS011;3619;53.784;10.440;2024-01-27T03:42:58;27.27;;;26.27;;
7154;SDS011;3619;53.784;10.440;2024-01-27T03:45:25;31.10;;;29.83;;
7154;SDS011;3619;53.784;10.440;2024-01-27T03:47:52;26.53;;;25.53;;
7154;SDS011;3619;53.784;10.440;2024-01-27T03:50:21;25.67;;;24.67;;
7154;SDS011;3619;53.784;10.440;2024-01-27T03:52:49;27.37;;;26.37;;
7154;SDS011;3619;53.784;10.440;2024-01-27T03:55:15;24.57;;;23.67;;
7154;SDS011;3619;53.784;10.440;2024-01-27T03:57:42;26.03;;;25.03;;
7154;SDS011;3619;53.784;10.440;2024-01-27T04:00:10;28.23;;;27.13;;
7154;SDS011;3619;53.784;10.440;2024-01-27T04:02:37;26.60;;;25.60;;
7154;SDS011;3619;53.784;10.440;2024-01-27T04:05:05;28.70;;;27.60;;
7154;SDS011;3619;53.784;10.440;2024-01-27T04:07:33;29.57;;;28.47;;
7154;SDS011;3619;53.784;10.440;2024-01-27T04:10:02;30.13;;;29.00;;
7154;SDS011;3619;53.784;10.440;2024-01-27T04:12:30;25.93;;;24.93;;
7154;SDS011;3619;53.784;10.440;2024-01-27T04:14:57;26.73;;;25.73;;
7154;SDS011;3619;53.784;10.440;2024-01-27T04:17:25;28.13;;;27.03;;
7154;SDS011;3619;53.784;10.440;2024-01-27T04:19:52;28.33;;;27.23;;
7154;SDS011;3619;53.784;10.440;2024-01-27T04:22:19;32.07;;;30.87;;
7154;SDS011;3619;53.784;10.440;2024-01-27T04:24:47;31.23;;;30.03;;
7154;SDS011;3619;53.784;10.440;2024-01-27T04:27:14;32.37;;;31.17;;
7154;SDS011;3619;53.784;10.440;2024-01-27T04:29:41;35.33;;;34.03;;
7154;SDS011;3619;53.784;10.440;2024-01-27T04:32:08;33.83;;;32.53;;
7154;SDS011;3619;53.784;10.440;2024-01-27T04:34:35;35.57;;;34.20;;
7154;SDS011;3619;53.784;10.440;2024-01-27T04:37:02;35.23;;;33.93;;
7154;SDS011;3619;53.784;10.440;2024-01-27T04:39:29;35.07;;;33.77;;
7154;SDS011;3619;53.784;10.440;2024-01-27T04:41:57;36.03;;;34.63;;
7154;SDS011;3619;53.784;10.440;2024-01-27T04:44:24;32.80;;;31.57;;
7154;SDS011;3619;53.784;10.440;2024-01-27T04:46:51;34.03;;;32.73;;
7154;SDS011;3619;53.784;10.440;2024-01-27T04:49:18;28.40;;;27.30;;
7154;SDS011;3619;53.784;10.440;2024-01-27T04:51:45;37.23;;;35.83;;
7154;SDS011;3619;53.784;10.440;2024-01-27T04:54:11;32.37;;;31.17;;
7154;SDS011;3619;53.784;10.440;2024-01-27T04:56:38;33.83;;;32.53;;
7154;SDS011;3619;53.784;10.440;2024-01-27T04:59:07;36.40;;;35.00;;
7154;SDS011;3619;53.784;10.440;2024-01-27T05:01:34;35.10;;;33.80;;
7154;SDS011;3619;53.784;10.440;2024-01-27T05:04:01;35.53;;;34.20;;
7154;SDS011;3619;53.784;10.440;2024-01-27T05:06:28;38.00;;;36.57;;
7154;SDS011;3619;53.784;10.440;2024-01-27T05:08:55;38.80;;;37.30;;
7154;SDS011;3619;53.784;10.440;2024-01-27T05:11:25;37.50;;;36.10;;
7154;SDS011;3619;53.784;10.440;2024-01-27T05:13:56;34.73;;;33.43;;
7154;SDS011;3619;53.784;10.440;2024-01-27T05:16:24;39.63;;;38.13;;
7154;SDS011;3619;53.784;10.440;2024-01-27T05:18:51;40.07;;;38.57;;
7154;SDS011;3619;53.784;10.440;2024-01-27T05:21:17;33.50;;;32.20;;
7154;SDS011;3619;53.784;10.440;2024-01-27T05:23:44;37.87;;;36.47;;
7154;SDS011;3619;53.784;10.440;2024-01-27T05:26:10;37.77;;;36.37;;
7154;SDS011;3619;53.784;10.440;2024-01-27T05:28:37;37.40;;;36.00;;
7154;SDS011;3619;53.784;10.440;2024-01-27T05:31:06;37.50;;;36.10;;
7154;SDS011;3619;53.784;10.440;2024-01-27T05:33:35;37.30;;;35.90;;
7154;SDS011;3619;53.784;10.440;2024-01-27T05:36:02;39.70;;;38.20;;
7154;SDS011;3619;53.784;10.440;2024-01-27T05:38:29;38.87;;;37.37;;
7154;SDS011;3619;53.784;10.440;2024-01-27T05:40:57;40.27;;;38.77;;
7154;SDS011;3619;53.784;10.440;2024-01-27T05:43:25;41.03;;;39.43;;
7154;SDS011;3619;53.784;10.440;2024-01-27T05:45:51;39.67;;;38.17;;
7154;SDS011;3619;53.784;10.440;2024-01-27T05:48:18;40.07;;;38.53;;
7154;SDS011;3619;53.784;10.440;2024-01-27T05:50:55;41.70;;;40.10;;
7154;SDS011;3619;53.784;10.440;2024-01-27T05:53:22;38.63;;;37.13;;
7154;SDS011;3619;53.784;10.440;2024-01-27T05:55:49;41.27;;;39.67;;
7154;SDS011;3619;53.784;10.440;2024-01-27T05:58:16;41.43;;;39.83;;
7154;SDS011;3619;53.784;10.440;2024-01-27T06:00:46;44.57;;;42.87;;
7154;SDS011;3619;53.784;10.440;2024-01-27T06:03:12;43.13;;;41.50;;
7154;SDS011;3619;53.784;10.440;2024-01-27T06:05:40;40.40;;;38.87;;
7154;SDS011;3619;53.784;10.440;2024-01-27T06:08:08;39.57;;;38.07;;
7154;SDS011;3619;53.784;10.440;2024-01-27T06:10:35;39.40;;;37.90;;
7154;SDS011;3619;53.784;10.440;2024-01-27T06:13:02;39.50;;;38.00;;
7154;SDS011;3619;53.784;10.440;2024-01-27T06:15:30;43.40;;;41.73;;
7154;SDS011;3619;53.784;10.440;2024-01-27T06:17:57;41.83;;;40.23;;
7154;SDS011;3619;53.784;10.440;2024-01-27T06:20:24;41.43;;;39.83;;
7154;SDS011;3619;53.784;10.440;2024-01-27T06:22:51;41.83;;;40.23;;
7154;SDS011;3619;53.784;10.440;2024-01-27T06:25:19;43.47;;;41.80;;
7154;SDS011;3619;53.784;10.440;2024-01-27T06:27:47;40.77;;;39.20;;
7154;SDS011;3619;53.784;10.440;2024-01-27T06:30:14;44.37;;;42.67;;
7154;SDS011;3619;53.784;10.440;2024-01-27T06:32:41;43.90;;;42.20;;
7154;SDS011;3619;53.784;10.440;2024-01-27T06:35:09;46.27;;;44.47;;
7154;SDS011;3619;53.784;10.440;2024-01-27T06:37:36;43.80;;;42.10;;
7154;SDS011;3619;53.784;10.440;2024-01-27T06:40:03;43.40;;;41.73;;
7154;SDS011;3619;53.784;10.440;2024-01-27T06:42:32;47.20;;;45.40;;
7154;SDS011;3619;53.784;10.440;2024-01-27T06:45:00;42.77;;;41.17;;
7154;SDS011;3619;53.784;10.440;2024-01-27T06:47:27;42.50;;;40.90;;
7154;SDS011;3619;53.784;10.440;2024-01-27T06:49:54;43.97;;;42.27;;
7154;SDS011;3619;53.784;10.440;2024-01-27T06:52:20;42.77;;;41.17;;
7154;SDS011;3619;53.784;10.440;2024-01-27T06:54:47;39.43;;;37.93;;
7154;SDS011;3619;53.784;10.440;2024-01-27T06:57:17;43.23;;;41.60;;
7154;SDS011;3619;53.784;10.440;2024-01-27T06:59:47;39.97;;;38.47;;
7154;SDS011;3619;53.784;10.440;2024-01-27T07:02:17;43.83;;;42.13;;
7154;SDS011;3619;53.784;10.440;2024-01-27T07:04:45;43.90;;;42.20;;
7154;SDS011;3619;53.784;10.440;2024-01-27T07:07:13;46.13;;;44.33;;
7154;SDS011;3619;53.784;10.440;2024-01-27T07:09:40;48.80;;;46.90;;
7154;SDS011;3619;53.784;10.440;2024-01-27T07:12:07;42.80;;;41.20;;
7154;SDS011;3619;53.784;10.440;2024-01-27T07:14:34;45.87;;;44.13;;
7154;SDS011;3619;53.784;10.440;2024-01-27T07:17:03;45.07;;;43.37;;
7154;SDS011;3619;53.784;10.440;2024-01-27T07:19:30;44.77;;;43.07;;
7154;SDS011;3619;53.784;10.440;2024-01-27T07:21:57;47.20;;;45.40;;
7154;SDS011;3619;53.784;10.440;2024-01-27T07:24:25;45.23;;;43.53;;
7154;SDS011;3619;53.784;10.440;2024-01-27T07:26:52;46.53;;;44.73;;
7154;SDS011;3619;53.784;10.440;2024-01-27T07:29:18;43.23;;;41.57;;
7154;SDS011;3619;53.784;10.440;2024-01-27T07:31:46;45.10;;;43.40;;
7154;SDS011;3619;53.784;10.440;2024-01-27T07:34:15;44.00;;;42.30;;
7154;SDS011;3619;53.784;10.440;2024-01-27T07:36:42;44.20;;;42.50;;
7154;SDS011;3619;53.784;10.440;2024-01-27T07:39:08;43.67;;;41.97;;
7154;SDS011;3619;53.784;10.440;2024-01-27T07:41:35;43.03;;;41.43;;
7154;SDS011;3619;53.784;10.440;2024-01-27T07:44:09;45.43;;;43.73;;
7154;SDS011;3619;53.784;10.440;2024-01-27T07:46:37;44.93;;;43.23;;
7154;SDS011;3619;53.784;10.440;2024-01-27T07:49:04;46.83;;;45.03;;
7154;SDS011;3619;53.784;10.440;2024-01-27T07:51:34;49.13;;;47.23;;
7154;SDS011;3619;53.784;10.440;2024-01-27T07:54:01;47.07;;;45.27;;
7154;SDS011;3619;53.784;10.440;2024-01-27T07:56:31;44.33;;;42.63;;
7154;SDS011;3619;53.784;10.440;2024-01-27T07:59:02;46.13;;;44.33;;
7154;SDS011;3619;53.784;10.440;2024-01-27T08:01:28;48.07;;;46.27;;
7154;SDS011;3619;53.784;10.440;2024-01-27T08:03:55;44.90;;;43.20;;
7154;SDS011;3619;53.784;10.440;2024-01-27T08:06:26;45.03;;;43.33;;
7154;SDS011;3619;53.784;10.440;2024-01-27T08:08:55;42.13;;;40.53;;
7154;SDS011;3619;53.784;10.440;2024-01-27T08:11:25;51.20;;;49.20;;
7154;SDS011;3619;53.784;10.440;2024-01-27T08:13:52;44.47;;;42.77;;
7154;SDS011;3619;53.784;10.440;2024-01-27T08:16:19;43.43;;;41.77;;
7154;SDS011;3619;53.784;10.440;2024-01-27T08:18:46;43.57;;;41.90;;
7154;SDS011;3619;53.784;10.440;2024-01-27T08:21:13;44.50;;;42.80;;
7154;SDS011;3619;53.784;10.440;2024-01-27T08:23:41;45.47;;;43.73;;
7154;SDS011;3619;53.784;10.440;2024-01-27T08:26:10;45.53;;;43.83;;
7154;SDS011;3619;53.784;10.440;2024-01-27T08:28:37;47.90;;;46.10;;
7154;SDS011;3619;53.784;10.440;2024-01-27T08:31:04;48.47;;;46.60;;
7154;SDS011;3619;53.784;10.440;2024-01-27T08:33:31;42.10;;;40.50;;
7154;SDS011;3619;53.784;10.440;2024-01-27T08:35:58;44.03;;;42.33;;
7154;SDS011;3619;53.784;10.440;2024-01-27T08:38:25;41.77;;;40.17;;
7154;SDS011;3619;53.784;10.440;2024-01-27T08:40:52;48.13;;;46.30;;
7154;SDS011;3619;53.784;10.440;2024-01-27T08:43:20;43.97;;;42.27;;
7154;SDS011;3619;53.784;10.440;2024-01-27T08:45:47;45.57;;;43.87;;
7154;SDS011;3619;53.784;10.440;2024-01-27T08:48:14;48.53;;;46.67;;
7154;SDS011;3619;53.784;10.440;2024-01-27T08:50:41;44.03;;;42.33;;
7154;SDS011;3619;53.784;10.440;2024-01-27T08:53:08;47.53;;;45.73;;
7154;SDS011;3619;53.784;10.440;2024-01-27T08:55:35;47.93;;;46.13;;
7154;SDS011;3619;53.784;10.440;2024-01-27T08:58:03;47.63;;;45.83;;
7154;SDS011;3619;53.784;10.440;2024-01-27T09:00:31;48.50;;;46.63;;
7154;SDS011;3619;53.784;10.440;2024-01-27T09:02:59;47.70;;;45.90;;
7154;SDS011;3619;53.784;10.440;2024-01-27T09:05:26;50.70;;;48.80;;
7154;SDS011;3619;53.784;10.440;2024-01-27T09:07:53;43.33;;;41.67;;
7154;SDS011;3619;53.784;10.440;2024-01-27T09:10:21;46.37;;;44.57;;
7154;SDS011;3619;53.784;10.440;2024-01-27T09:12:48;49.13;;;47.23;;
7154;SDS011;3619;53.784;10.440;2024-01-27T09:15:15;51.10;;;49.10;;
7154;SDS011;3619;53.784;10.440;2024-01-27T09:17:43;47.47;;;45.67;;
7154;SDS011;3619;53.784;10.440;2024-01-27T09:20:10;48.97;;;47.07;;
7154;SDS011;3619;53.784;10.440;2024-01-27T09:22:37;49.00;;;47.10;;
7154;SDS011;3619;53.784;10.440;2024-01-27T09:25:05;55.07;;;52.97;;
7154;SDS011;3619;53.784;10.440;2024-01-27T09:27:33;50.73;;;48.80;;
7154;SDS011;3619;53.784;10.440;2024-01-27T09:30:00;51.37;;;49.37;;
7154;SDS011;3619;53.784;10.440;2024-01-27T09:32:28;48.87;;;46.97;;
7154;SDS011;3619;53.784;10.440;2024-01-27T09:34:56;48.93;;;47.03;;
7154;SDS011;3619;53.784;10.440;2024-01-27T09:37:23;52.43;;;50.43;;
7154;SDS011;3619;53.784;10.440;2024-01-27T09:39:50;45.33;;;43.63;;
7154;SDS011;3619;53.784;10.440;2024-01-27T09:42:17;45.17;;;43.47;;
7154;SDS011;3619;53.784;10.440;2024-01-27T09:44:48;45.83;;;44.07;;
7154;SDS011;3619;53.784;10.440;2024-01-27T09:47:15;45.40;;;43.70;;
7154;SDS011;3619;53.784;10.440;2024-01-27T09:49:43;45.67;;;43.93;;
7154;SDS011;3619;53.784;10.440;2024-01-27T09:52:12;46.33;;;44.53;;
7154;SDS011;3619;53.784;10.440;2024-01-27T09:54:39;44.10;;;42.40;;
7154;SDS011;3619;53.784;10.440;2024-01-27T09:57:07;42.50;;;40.90;;
7154;SDS011;3619;53.784;10.440;2024-01-27T09:59:37;46.40;;;44.60;;
7154;SDS011;3619;53.784;10.440;2024-01-27T10:02:07;47.30;;;45.50;;
7154;SDS011;3619;53.784;10.440;2024-01-27T10:04:37;51.10;;;49.17;;
7154;SDS011;3619;53.784;10.440;2024-01-27T10:07:04;45.17;;;43.47;;
7154;SDS011;3619;53.784;10.440;2024-01-27T10:09:50;43.67;;;41.97;;
7154;SDS011;3619;53.784;10.440;2024-01-27T10:12:18;42.97;;;41.37;;
7154;SDS011;3619;53.784;10.440;2024-01-27T10:14:49;36.60;;;35.20;;
7154;SDS011;3619;53.784;10.440;2024-01-27T10:17:20;43.33;;;41.70;;
7154;SDS011;3619;53.784;10.440;2024-01-27T10:19:47;39.47;;;37.97;;
7154;SDS011;3619;53.784;10.440;2024-01-27T10:22:25;43.13;;;41.53;;
7154;SDS011;3619;53.784;10.440;2024-01-27T10:24:54;44.73;;;43.03;;
7154;SDS011;3619;53.784;10.440;2024-01-27T10:27:21;42.10;;;40.50;;
7154;SDS011;3619;53.784;10.440;2024-01-27T10:29:51;42.23;;;40.63;;
7154;SDS011;3619;53.784;10.440;2024-01-27T10:32:19;44.03;;;42.33;;
7154;SDS011;3619;53.784;10.440;2024-01-27T10:34:48;37.67;;;36.27;;
7154;SDS011;3619;53.784;10.440;2024-01-27T10:37:16;34.23;;;32.93;;
7154;SDS011;3619;53.784;10.440;2024-01-27T10:39:50;33.17;;;31.87;;
7154;SDS011;3619;53.784;10.440;2024-01-27T10:42:28;34.57;;;33.27;;
7154;SDS011;3619;53.784;10.440;2024-01-27T10:44:56;36.77;;;35.37;;
7154;SDS011;3619;53.784;10.440;2024-01-27T10:47:24;33.73;;;32.43;;
7154;SDS011;3619;53.784;10.440;2024-01-27T10:49:54;35.47;;;34.10;;
7154;SDS011;3619;53.784;10.440;2024-01-27T10:52:21;36.70;;;35.30;;
7154;SDS011;3619;53.784;10.440;2024-01-27T10:54:55;37.80;;;36.40;;
7154;SDS011;3619;53.784;10.440;2024-01-27T10:57:27;37.93;;;36.50;;
7154;SDS011;3619;53.784;10.440;2024-01-27T10:59:56;30.40;;;29.27;;
7154;SDS011;3619;53.784;10.440;2024-01-27T11:02:24;30.90;;;29.70;;
7154;SDS011;3619;53.784;10.440;2024-01-27T11:04:51;29.17;;;28.07;;
7154;SDS011;3619;53.784;10.440;2024-01-27T11:07:20;31.90;;;30.70;;
7154;SDS011;3619;53.784;10.440;2024-01-27T11:09:48;32.30;;;31.10;;
7154;SDS011;3619;53.784;10.440;2024-01-27T11:12:17;32.00;;;30.80;;
7154;SDS011;3619;53.784;10.440;2024-01-27T11:14:47;34.30;;;33.00;;
7154;SDS011;3619;53.784;10.440;2024-01-27T11:17:14;25.63;;;24.63;;
7154;SDS011;3619;53.784;10.440;2024-01-27T11:19:41;30.43;;;29.27;;
7154;SDS011;3619;53.784;10.440;2024-01-27T11:22:17;24.77;;;23.87;;
7154;SDS011;3619;53.784;10.440;2024-01-27T11:24:52;25.83;;;24.83;;
7154;SDS011;3619;53.784;10.440;2024-01-27T11:27:19;26.63;;;25.63;;
7154;SDS011;3619;53.784;10.440;2024-01-27T11:29:56;26.10;;;25.10;;
7154;SDS011;3619;53.784;10.440;2024-01-27T11:32:23;22.47;;;21.63;;
7154;SDS011;3619;53.784;10.440;2024-01-27T11:34:50;23.57;;;22.67;;
7154;SDS011;3619;53.784;10.440;2024-01-27T11:37:18;26.13;;;25.13;;
7154;SDS011;3619;53.784;10.440;2024-01-27T11:39:50;24.70;;;23.80;;
7154;SDS011;3619;53.784;10.440;2024-01-27T11:42:17;26.10;;;25.10;;
7154;SDS011;3619;53.784;10.440;2024-01-27T11:44:45;26.40;;;25.40;;
7154;SDS011;3619;53.784;10.440;2024-01-27T11:47:17;18.10;;;17.40;;
7154;SDS011;3619;53.784;10.440;2024-01-27T11:49:50;23.30;;;22.40;;
7154;SDS011;3619;53.784;10.440;2024-01-27T11:52:18;20.50;;;19.70;;
7154;SDS011;3619;53.784;10.440;2024-01-27T11:54:46;19.77;;;19.03;;
7154;SDS011;3619;53.784;10.440;2024-01-27T11:57:12;16.10;;;15.50;;
7154;SDS011;3619;53.784;10.440;2024-01-27T11:59:39;19.67;;;18.97;;
7154;SDS011;3619;53.784;10.440;2024-01-27T12:02:06;19.00;;;18.30;;
7154;SDS011;3619;53.784;10.440;2024-01-27T12:04:35;15.00;;;14.40;;
7154;SDS011;3619;53.784;10.440;2024-01-27T12:07:02;16.73;;;16.03;;
7154;SDS011;3619;53.784;10.440;2024-01-27T12:09:29;14.10;;;13.60;;
7154;SDS011;3619;53.784;10.440;2024-01-27T12:11:59;13.07;;;12.57;;
7154;SDS011;3619;53.784;10.440;2024-01-27T12:14:36;12.53;;;12.03;;
7154;SDS011;3619;53.784;10.440;2024-01-27T12:17:04;12.77;;;12.27;;
7154;SDS011;3619;53.784;10.440;2024-01-27T12:19:35;13.17;;;12.67;;
7154;SDS011;3619;53.784;10.440;2024-01-27T12:22:03;16.13;;;15.53;;
7154;SDS011;3619;53.784;10.440;2024-01-27T12:24:48;12.67;;;12.17;;
7154;SDS011;3619;53.784;10.440;2024-01-27T12:27:14;12.50;;;11.90;;
7154;SDS011;3619;53.784;10.440;2024-01-27T12:29:41;11.53;;;11.13;;
7154;SDS011;3619;53.784;10.440;2024-01-27T12:32:09;12.37;;;11.90;;
7154;SDS011;3619;53.784;10.440;2024-01-27T12:34:40;10.97;;;10.57;;
7154;SDS011;3619;53.784;10.440;2024-01-27T12:37:08;9.73;;;9.33;;
7154;SDS011;3619;53.784;10.440;2024-01-27T12:39:41;10.67;;;10.27;;
7154;SDS011;3619;53.784;10.440;2024-01-27T12:42:09;9.93;;;9.53;;
7154;SDS011;3619;53.784;10.440;2024-01-27T12:44:35;10.80;;;10.40;;
7154;SDS011;3619;53.784;10.440;2024-01-27T12:47:03;9.97;;;9.57;;
7154;SDS011;3619;53.784;10.440;2024-01-27T12:49:30;11.37;;;10.87;;
7154;SDS011;3619;53.784;10.440;2024-01-27T12:51:58;12.00;;;11.60;;
7154;SDS011;3619;53.784;10.440;2024-01-27T12:54:25;10.43;;;10.03;;
7154;SDS011;3619;53.784;10.440;2024-01-27T12:56:52;11.77;;;11.37;;
7154;SDS011;3619;53.784;10.440;2024-01-27T12:59:19;12.90;;;12.40;;
7154;SDS011;3619;53.784;10.440;2024-01-27T13:01:46;11.50;;;11.10;;
7154;SDS011;3619;53.784;10.440;2024-01-27T13:04:13;10.37;;;9.97;;
7154;SDS011;3619;53.784;10.440;2024-01-27T13:06:39;12.07;;;11.63;;
7154;SDS011;3619;53.784;10.440;2024-01-27T13:09:08;12.07;;;11.67;;
7154;SDS011;3619;53.784;10.440;2024-01-27T13:11:37;8.93;;;8.63;;
7154;SDS011;3619;53.784;10.440;2024-01-27T13:14:04;9.17;;;8.87;;
7154;SDS011;3619;53.784;10.440;2024-01-27T13:16:31;8.57;;;8.27;;
7154;SDS011;3619;53.784;10.440;2024-01-27T13:18:58;10.90;;;10.50;;
7154;SDS011;3619;53.784;10.440;2024-01-27T13:21:25;10.13;;;9.73;;
7154;SDS011;3619;53.784;10.440;2024-01-27T13:23:53;11.40;;;11.00;;
7154;SDS011;3619;53.784;10.440;2024-01-27T13:26:23;9.10;;;8.80;;
7154;SDS011;3619;53.784;10.440;2024-01-27T13:28:50;8.60;;;8.30;;
7154;SDS011;3619;53.784;10.440;2024-01-27T13:31:17;8.53;;;8.23;;
7154;SDS011;3619;53.784;10.440;2024-01-27T13:33:44;8.07;;;7.77;;
7154;SDS011;3619;53.784;10.440;2024-01-27T13:36:11;8.23;;;7.93;;
7154;SDS011;3619;53.784;10.440;2024-01-27T13:38:39;6.70;;;6.50;;
7154;SDS011;3619;53.784;10.440;2024-01-27T13:41:06;7.40;;;7.10;;
7154;SDS011;3619;53.784;10.440;2024-01-27T13:43:34;7.47;;;7.17;;
7154;SDS011;3619;53.784;10.440;2024-01-27T13:46:01;8.23;;;7.93;;
7154;SDS011;3619;53.784;10.440;2024-01-27T13:48:28;7.53;;;7.23;;
7154;SDS011;3619;53.784;10.440;2024-01-27T13:50:55;7.67;;;7.37;;
7154;SDS011;3619;53.784;10.440;2024-01-27T13:53:22;7.80;;;7.50;;
7154;SDS011;3619;53.784;10.440;2024-01-27T13:55:49;7.60;;;7.30;;
7154;SDS011;3619;53.784;10.440;2024-01-27T13:58:16;7.87;;;7.57;;
7154;SDS011;3619;53.784;10.440;2024-01-27T14:00:45;7.83;;;7.53;;
7154;SDS011;3619;53.784;10.440;2024-01-27T14:03:13;7.07;;;6.80;;
7154;SDS011;3619;53.784;10.440;2024-01-27T14:05:40;7.17;;;6.87;;
7154;SDS011;3619;53.784;10.440;2024-01-27T14:08:08;7.77;;;7.47;;
7154;SDS011;3619;53.784;10.440;2024-01-27T14:10:35;8.17;;;7.87;;
7154;SDS011;3619;53.784;10.440;2024-01-27T14:13:04;7.53;;;7.23;;
7154;SDS011;3619;53.784;10.440;2024-01-27T14:15:34;7.30;;;7.00;;
7154;SDS011;3619;53.784;10.440;2024-01-27T14:18:02;8.63;;;8.33;;
7154;SDS011;3619;53.784;10.440;2024-01-27T14:20:32;8.67;;;8.37;;
7154;SDS011;3619;53.784;10.440;2024-01-27T14:23:03;9.47;;;9.13;;
7154;SDS011;3619;53.784;10.440;2024-01-27T14:25:31;8.83;;;8.53;;
7154;SDS011;3619;53.784;10.440;2024-01-27T14:27:58;8.77;;;8.47;;
7154;SDS011;3619;53.784;10.440;2024-01-27T14:30:24;10.27;;;9.87;;
7154;SDS011;3619;53.784;10.440;2024-01-27T14:32:51;8.47;;;8.17;;
7154;SDS011;3619;53.784;10.440;2024-01-27T14:35:20;10.80;;;10.40;;
7154;SDS011;3619;53.784;10.440;2024-01-27T14:37:46;9.67;;;9.30;;
7154;SDS011;3619;53.784;10.440;2024-01-27T14:40:13;7.67;;;7.37;;
7154;SDS011;3619;53.784;10.440;2024-01-27T14:42:40;9.00;;;8.70;;